sensor_id;sensor_type;location;lat;lon;timestamp;temperature;humidity
19403;DHT22;9837;48.888;8.998;2023-05-10T00:00:08;18.40;73.10
19403;DHT22;9837;48.888;8.998;2023-05-10T00:02:34;18.40;73.10
19403;DHT22;9837;48.888;8.998;2023-05-10T00:05:00;18.30;72.80
19403;DHT22;9837;48.888;8.998;2023-05-10T00:07:25;18.30;72.60
19403;DHT22;9837;48.888;8.998;2023-05-10T00:09:51;18.20;72.70
19403;DHT22;9837;48.888;8.998;2023-05-10T00:12:16;17.90;73.50
19403;DHT22;9837;48.888;8.998;2023-05-10T00:14:42;17.70;75.20
19403;DHT22;9837;48.888;8.998;2023-05-10T00:17:07;17.50;75.70
19403;DHT22;9837;48.888;8.998;2023-05-10T00:19:33;17.60;76.50
19403;DHT22;9837;48.888;8.998;2023-05-10T00:21:58;17.60;75.80
19403;DHT22;9837;48.888;8.998;2023-05-10T00:24:24;17.70;75.50
19403;DHT22;9837;48.888;8.998;2023-05-10T00:26:50;17.80;75.20
19403;DHT22;9837;48.888;8.998;2023-05-10T00:29:15;17.90;74.90
19403;DHT22;9837;48.888;8.998;2023-05-10T00:31:41;17.90;74.20
19403;DHT22;9837;48.888;8.998;2023-05-10T00:34:06;17.70;74.70
19403;DHT22;9837;48.888;8.998;2023-05-10T00:36:32;17.60;75.30
19403;DHT22;9837;48.888;8.998;2023-05-10T00:38:57;17.60;75.60
19403;DHT22;9837;48.888;8.998;2023-05-10T00:41:23;17.70;76.30
19403;DHT22;9837;48.888;8.998;2023-05-10T00:43:48;17.80;75.00
19403;DHT22;9837;48.888;8.998;2023-05-10T00:46:15;17.90;74.80
19403;DHT22;9837;48.888;8.998;2023-05-10T00:48:41;18.00;74.40
19403;DHT22;9837;48.888;8.998;2023-05-10T00:51:07;18.00;74.20
19403;DHT22;9837;48.888;8.998;2023-05-10T00:53:34;17.90;74.20
19403;DHT22;9837;48.888;8.998;2023-05-10T00:56:00;18.00;74.00
19403;DHT22;9837;48.888;8.998;2023-05-10T00:58:27;18.10;73.70
19403;DHT22;9837;48.888;8.998;2023-05-10T01:00:54;18.00;73.90
19403;DHT22;9837;48.888;8.998;2023-05-10T01:03:20;18.00;73.50
19403;DHT22;9837;48.888;8.998;2023-05-10T01:05:46;18.00;72.80
19403;DHT22;9837;48.888;8.998;2023-05-10T01:08:12;17.90;73.20
19403;DHT22;9837;48.888;8.998;2023-05-10T01:15:30;17.80;73.40
19403;DHT22;9837;48.888;8.998;2023-05-10T01:20:23;17.60;74.40
19403;DHT22;9837;48.888;8.998;2023-05-10T01:28:44;17.60;75.20
19403;DHT22;9837;48.888;8.998;2023-05-10T01:34:09;17.90;74.00
19403;DHT22;9837;48.888;8.998;2023-05-10T01:36:42;18.10;73.30
19403;DHT22;9837;48.888;8.998;2023-05-10T01:39:15;18.10;72.80
19403;DHT22;9837;48.888;8.998;2023-05-10T01:41:52;17.90;73.30
19403;DHT22;9837;48.888;8.998;2023-05-10T01:47:04;18.00;73.40
19403;DHT22;9837;48.888;8.998;2023-05-10T01:49:39;18.00;73.00
19403;DHT22;9837;48.888;8.998;2023-05-10T01:52:10;18.00;72.90
19403;DHT22;9837;48.888;8.998;2023-05-10T01:54:42;18.00;73.60
19403;DHT22;9837;48.888;8.998;2023-05-10T01:57:10;18.10;72.90
19403;DHT22;9837;48.888;8.998;2023-05-10T01:59:40;18.10;72.80
19403;DHT22;9837;48.888;8.998;2023-05-10T02:02:08;18.10;72.50
19403;DHT22;9837;48.888;8.998;2023-05-10T02:04:38;18.00;72.80
19403;DHT22;9837;48.888;8.998;2023-05-10T02:07:05;17.90;73.20
19403;DHT22;9837;48.888;8.998;2023-05-10T02:09:33;18.00;73.20
19403;DHT22;9837;48.888;8.998;2023-05-10T02:12:01;17.90;72.70
19403;DHT22;9837;48.888;8.998;2023-05-10T02:14:30;17.70;73.30
19403;DHT22;9837;48.888;8.998;2023-05-10T02:16:58;17.80;73.30
19403;DHT22;9837;48.888;8.998;2023-05-10T02:19:26;17.90;72.90
19403;DHT22;9837;48.888;8.998;2023-05-10T02:21:52;18.00;72.70
19403;DHT22;9837;48.888;8.998;2023-05-10T02:24:19;18.00;72.50
19403;DHT22;9837;48.888;8.998;2023-05-10T02:26:47;17.90;72.60
19403;DHT22;9837;48.888;8.998;2023-05-10T02:29:15;17.90;72.50
19403;DHT22;9837;48.888;8.998;2023-05-10T02:31:42;18.00;72.60
19403;DHT22;9837;48.888;8.998;2023-05-10T02:34:10;18.00;72.30
19403;DHT22;9837;48.888;8.998;2023-05-10T02:36:37;18.00;72.70
19403;DHT22;9837;48.888;8.998;2023-05-10T02:39:03;18.00;73.40
19403;DHT22;9837;48.888;8.998;2023-05-10T02:41:32;18.10;72.30
19403;DHT22;9837;48.888;8.998;2023-05-10T02:43:59;18.10;72.10
19403;DHT22;9837;48.888;8.998;2023-05-10T02:46:26;18.00;72.60
19403;DHT22;9837;48.888;8.998;2023-05-10T02:48:52;18.00;74.10
19403;DHT22;9837;48.888;8.998;2023-05-10T02:51:18;18.00;72.40
19403;DHT22;9837;48.888;8.998;2023-05-10T02:53:46;18.00;73.20
19403;DHT22;9837;48.888;8.998;2023-05-10T02:56:15;17.80;72.60
19403;DHT22;9837;48.888;8.998;2023-05-10T02:58:44;17.80;73.20
19403;DHT22;9837;48.888;8.998;2023-05-10T03:01:11;17.80;73.40
19403;DHT22;9837;48.888;8.998;2023-05-10T03:03:36;17.80;74.10
19403;DHT22;9837;48.888;8.998;2023-05-10T03:06:02;17.90;73.30
19403;DHT22;9837;48.888;8.998;2023-05-10T03:08:27;17.80;73.40
19403;DHT22;9837;48.888;8.998;2023-05-10T03:14:10;17.90;73.30
19403;DHT22;9837;48.888;8.998;2023-05-10T03:16:46;18.00;72.90
19403;DHT22;9837;48.888;8.998;2023-05-10T03:19:20;18.00;73.10
19403;DHT22;9837;48.888;8.998;2023-05-10T03:21:50;17.80;73.30
19403;DHT22;9837;48.888;8.998;2023-05-10T03:24:20;17.80;73.70
19403;DHT22;9837;48.888;8.998;2023-05-10T03:26:47;17.70;74.20
19403;DHT22;9837;48.888;8.998;2023-05-10T03:29:14;17.70;74.30
19403;DHT22;9837;48.888;8.998;2023-05-10T03:31:40;17.80;73.80
19403;DHT22;9837;48.888;8.998;2023-05-10T03:34:05;17.90;73.50
19403;DHT22;9837;48.888;8.998;2023-05-10T03:36:32;17.90;73.40
19403;DHT22;9837;48.888;8.998;2023-05-10T03:38:58;17.90;73.10
19403;DHT22;9837;48.888;8.998;2023-05-10T03:41:23;17.90;73.80
19403;DHT22;9837;48.888;8.998;2023-05-10T03:43:50;18.00;73.50
19403;DHT22;9837;48.888;8.998;2023-05-10T03:46:15;17.80;73.40
19403;DHT22;9837;48.888;8.998;2023-05-10T03:48:41;17.80;73.30
19403;DHT22;9837;48.888;8.998;2023-05-10T03:51:06;17.70;73.20
19403;DHT22;9837;48.888;8.998;2023-05-10T03:55:58;17.50;73.90
19403;DHT22;9837;48.888;8.998;2023-05-10T03:58:23;17.50;73.80
19403;DHT22;9837;48.888;8.998;2023-05-10T04:00:49;17.50;73.70
19403;DHT22;9837;48.888;8.998;2023-05-10T04:03:15;17.50;73.80
19403;DHT22;9837;48.888;8.998;2023-05-10T04:05:41;17.50;73.30
19403;DHT22;9837;48.888;8.998;2023-05-10T04:10:33;17.40;74.30
19403;DHT22;9837;48.888;8.998;2023-05-10T04:12:58;17.50;73.40
19403;DHT22;9837;48.888;8.998;2023-05-10T04:15:24;17.60;72.90
19403;DHT22;9837;48.888;8.998;2023-05-10T04:17:50;17.50;73.40
19403;DHT22;9837;48.888;8.998;2023-05-10T04:20:16;17.50;73.40
19403;DHT22;9837;48.888;8.998;2023-05-10T04:22:42;17.50;73.10
19403;DHT22;9837;48.888;8.998;2023-05-10T04:25:08;17.50;72.90
19403;DHT22;9837;48.888;8.998;2023-05-10T04:27:33;17.50;73.10
19403;DHT22;9837;48.888;8.998;2023-05-10T04:29:59;17.60;72.70
19403;DHT22;9837;48.888;8.998;2023-05-10T04:32:24;17.60;72.50
19403;DHT22;9837;48.888;8.998;2023-05-10T04:34:50;17.60;73.30
19403;DHT22;9837;48.888;8.998;2023-05-10T04:37:16;17.50;73.10
19403;DHT22;9837;48.888;8.998;2023-05-10T04:39:42;17.60;72.70
19403;DHT22;9837;48.888;8.998;2023-05-10T04:47:00;18.00;71.20
19403;DHT22;9837;48.888;8.998;2023-05-10T04:49:26;18.00;71.90
19403;DHT22;9837;48.888;8.998;2023-05-10T04:51:51;18.20;70.60
19403;DHT22;9837;48.888;8.998;2023-05-10T04:54:17;18.20;70.60
19403;DHT22;9837;48.888;8.998;2023-05-10T04:56:42;18.30;70.50
19403;DHT22;9837;48.888;8.998;2023-05-10T05:01:34;18.20;70.70
19403;DHT22;9837;48.888;8.998;2023-05-10T05:04:00;18.30;70.50
19403;DHT22;9837;48.888;8.998;2023-05-10T05:06:25;18.30;70.40
19403;DHT22;9837;48.888;8.998;2023-05-10T05:08:52;22.00;73.50
19403;DHT22;9837;48.888;8.998;2023-05-10T05:11:18;18.40;70.60
19403;DHT22;9837;48.888;8.998;2023-05-10T05:13:43;18.50;70.20
19403;DHT22;9837;48.888;8.998;2023-05-10T05:16:09;18.60;69.90
19403;DHT22;9837;48.888;8.998;2023-05-10T05:18:36;18.60;69.70
19403;DHT22;9837;48.888;8.998;2023-05-10T05:21:01;18.70;69.40
19403;DHT22;9837;48.888;8.998;2023-05-10T05:23:27;18.70;69.40
19403;DHT22;9837;48.888;8.998;2023-05-10T05:25:53;18.70;69.00
19403;DHT22;9837;48.888;8.998;2023-05-10T05:28:22;18.70;69.70
19403;DHT22;9837;48.888;8.998;2023-05-10T05:30:47;18.80;68.80
19403;DHT22;9837;48.888;8.998;2023-05-10T05:33:14;18.90;68.60
19403;DHT22;9837;48.888;8.998;2023-05-10T05:35:40;18.90;68.70
19403;DHT22;9837;48.888;8.998;2023-05-10T05:38:06;18.90;68.70
19403;DHT22;9837;48.888;8.998;2023-05-10T05:40:32;18.90;69.40
19403;DHT22;9837;48.888;8.998;2023-05-10T05:42:57;18.90;68.60
19403;DHT22;9837;48.888;8.998;2023-05-10T05:45:23;18.90;68.60
19403;DHT22;9837;48.888;8.998;2023-05-10T05:47:48;18.90;69.30
19403;DHT22;9837;48.888;8.998;2023-05-10T05:50:14;18.90;68.70
19403;DHT22;9837;48.888;8.998;2023-05-10T05:52:39;18.90;69.40
19403;DHT22;9837;48.888;8.998;2023-05-10T05:55:05;19.10;68.00
19403;DHT22;9837;48.888;8.998;2023-05-10T05:59:57;19.10;68.00
19403;DHT22;9837;48.888;8.998;2023-05-10T06:02:22;19.20;67.90
19403;DHT22;9837;48.888;8.998;2023-05-10T06:04:48;19.30;67.40
19403;DHT22;9837;48.888;8.998;2023-05-10T06:07:13;19.20;66.90
19403;DHT22;9837;48.888;8.998;2023-05-10T06:09:39;19.20;67.70
19403;DHT22;9837;48.888;8.998;2023-05-10T06:12:04;19.20;67.10
19403;DHT22;9837;48.888;8.998;2023-05-10T06:14:30;19.20;68.00
19403;DHT22;9837;48.888;8.998;2023-05-10T06:16:55;19.40;67.10
19403;DHT22;9837;48.888;8.998;2023-05-10T06:19:21;19.40;66.70
19403;DHT22;9837;48.888;8.998;2023-05-10T06:21:46;19.50;66.90
19403;DHT22;9837;48.888;8.998;2023-05-10T06:24:12;19.50;66.30
19403;DHT22;9837;48.888;8.998;2023-05-10T06:26:37;19.50;66.50
19403;DHT22;9837;48.888;8.998;2023-05-10T06:29:03;19.70;66.20
19403;DHT22;9837;48.888;8.998;2023-05-10T06:33:54;19.80;64.70
19403;DHT22;9837;48.888;8.998;2023-05-10T06:36:20;19.80;65.10
19403;DHT22;9837;48.888;8.998;2023-05-10T06:38:46;19.80;64.50
19403;DHT22;9837;48.888;8.998;2023-05-10T06:41:11;19.80;64.50
19403;DHT22;9837;48.888;8.998;2023-05-10T06:43:37;19.90;64.10
19403;DHT22;9837;48.888;8.998;2023-05-10T06:46:05;19.90;63.80
19403;DHT22;9837;48.888;8.998;2023-05-10T06:48:30;20.00;64.50
19403;DHT22;9837;48.888;8.998;2023-05-10T06:50:56;20.00;64.10
19403;DHT22;9837;48.888;8.998;2023-05-10T06:53:21;20.10;62.70
19403;DHT22;9837;48.888;8.998;2023-05-10T06:55:49;20.00;62.60
19403;DHT22;9837;48.888;8.998;2023-05-10T06:58:14;20.00;63.30
19403;DHT22;9837;48.888;8.998;2023-05-10T07:00:40;20.00;62.70
19403;DHT22;9837;48.888;8.998;2023-05-10T07:03:07;20.10;63.60
19403;DHT22;9837;48.888;8.998;2023-05-10T07:05:33;20.20;62.20
19403;DHT22;9837;48.888;8.998;2023-05-10T07:07:59;20.10;62.90
19403;DHT22;9837;48.888;8.998;2023-05-10T07:10:24;20.30;61.50
19403;DHT22;9837;48.888;8.998;2023-05-10T07:12:50;20.40;61.60
19403;DHT22;9837;48.888;8.998;2023-05-10T07:15:17;20.60;61.10
19403;DHT22;9837;48.888;8.998;2023-05-10T07:17:42;20.70;60.50
19403;DHT22;9837;48.888;8.998;2023-05-10T07:20:08;20.70;59.50
19403;DHT22;9837;48.888;8.998;2023-05-10T07:25:00;20.80;59.70
19403;DHT22;9837;48.888;8.998;2023-05-10T07:27:25;20.70;59.40
19403;DHT22;9837;48.888;8.998;2023-05-10T07:29:51;20.80;59.60
19403;DHT22;9837;48.888;8.998;2023-05-10T07:32:16;20.80;58.90
19403;DHT22;9837;48.888;8.998;2023-05-10T07:34:42;20.90;58.70
19403;DHT22;9837;48.888;8.998;2023-05-10T07:37:07;20.80;58.70
19403;DHT22;9837;48.888;8.998;2023-05-10T07:39:33;20.90;58.00
19403;DHT22;9837;48.888;8.998;2023-05-10T07:41:59;20.80;58.00
19403;DHT22;9837;48.888;8.998;2023-05-10T07:44:24;20.80;58.60
19403;DHT22;9837;48.888;8.998;2023-05-10T07:46:50;20.80;58.30
19403;DHT22;9837;48.888;8.998;2023-05-10T07:49:15;20.90;57.90
19403;DHT22;9837;48.888;8.998;2023-05-10T07:51:41;21.00;57.60
19403;DHT22;9837;48.888;8.998;2023-05-10T07:56:33;21.10;57.40
19403;DHT22;9837;48.888;8.998;2023-05-10T07:59:00;21.10;56.30
19403;DHT22;9837;48.888;8.998;2023-05-10T08:01:26;21.00;56.90
19403;DHT22;9837;48.888;8.998;2023-05-10T08:03:55;20.80;56.50
19403;DHT22;9837;48.888;8.998;2023-05-10T08:06:21;20.80;56.90
19403;DHT22;9837;48.888;8.998;2023-05-10T08:08:47;20.90;57.50
19403;DHT22;9837;48.888;8.998;2023-05-10T08:11:17;21.10;57.40
19403;DHT22;9837;48.888;8.998;2023-05-10T08:13:44;21.10;57.90
19403;DHT22;9837;48.888;8.998;2023-05-10T08:16:10;21.00;56.70
19403;DHT22;9837;48.888;8.998;2023-05-10T08:21:01;20.80;56.80
19403;DHT22;9837;48.888;8.998;2023-05-10T08:25:53;20.60;56.80
19403;DHT22;9837;48.888;8.998;2023-05-10T08:28:18;20.30;57.50
19403;DHT22;9837;48.888;8.998;2023-05-10T08:30:44;20.30;57.90
19403;DHT22;9837;48.888;8.998;2023-05-10T08:33:09;20.40;57.80
19403;DHT22;9837;48.888;8.998;2023-05-10T08:35:35;20.40;58.00
19403;DHT22;9837;48.888;8.998;2023-05-10T08:38:01;20.60;58.10
19403;DHT22;9837;48.888;8.998;2023-05-10T08:40:26;20.80;57.40
19403;DHT22;9837;48.888;8.998;2023-05-10T08:43:14;20.90;56.60
19403;DHT22;9837;48.888;8.998;2023-05-10T08:45:44;21.00;56.90
19403;DHT22;9837;48.888;8.998;2023-05-10T08:48:14;21.20;56.10
19403;DHT22;9837;48.888;8.998;2023-05-10T08:50:40;21.30;55.30
19403;DHT22;9837;48.888;8.998;2023-05-10T08:53:12;21.20;54.70
19403;DHT22;9837;48.888;8.998;2023-05-10T08:55:39;21.10;55.50
19403;DHT22;9837;48.888;8.998;2023-05-10T08:58:06;21.40;55.60
19403;DHT22;9837;48.888;8.998;2023-05-10T09:00:32;21.70;55.10
19403;DHT22;9837;48.888;8.998;2023-05-10T09:02:59;21.70;54.60
19403;DHT22;9837;48.888;8.998;2023-05-10T09:05:24;21.60;54.50
19403;DHT22;9837;48.888;8.998;2023-05-10T09:07:50;21.70;54.80
19403;DHT22;9837;48.888;8.998;2023-05-10T09:10:16;22.00;54.10
19403;DHT22;9837;48.888;8.998;2023-05-10T09:12:43;22.40;53.70
19403;DHT22;9837;48.888;8.998;2023-05-10T09:15:09;22.40;53.40
19403;DHT22;9837;48.888;8.998;2023-05-10T09:17:36;22.70;53.10
19403;DHT22;9837;48.888;8.998;2023-05-10T09:20:03;22.80;51.90
19403;DHT22;9837;48.888;8.998;2023-05-10T09:22:30;22.60;52.10
19403;DHT22;9837;48.888;8.998;2023-05-10T09:25:06;22.50;52.00
19403;DHT22;9837;48.888;8.998;2023-05-10T09:27:32;22.30;53.50
19403;DHT22;9837;48.888;8.998;2023-05-10T09:29:57;22.10;53.20
19403;DHT22;9837;48.888;8.998;2023-05-10T09:32:39;21.90;53.80
19403;DHT22;9837;48.888;8.998;2023-05-10T09:35:09;21.90;54.60
19403;DHT22;9837;48.888;8.998;2023-05-10T09:37:35;21.80;55.00
19403;DHT22;9837;48.888;8.998;2023-05-10T09:40:04;21.90;54.00
19403;DHT22;9837;48.888;8.998;2023-05-10T09:42:30;22.10;54.00
19403;DHT22;9837;48.888;8.998;2023-05-10T09:45:05;22.10;54.00
19403;DHT22;9837;48.888;8.998;2023-05-10T09:47:34;21.70;53.90
19403;DHT22;9837;48.888;8.998;2023-05-10T09:50:02;21.50;55.10
19403;DHT22;9837;48.888;8.998;2023-05-10T09:52:55;21.40;55.50
19403;DHT22;9837;48.888;8.998;2023-05-10T09:55:46;21.40;55.30
19403;DHT22;9837;48.888;8.998;2023-05-10T10:00:39;21.80;54.70
19403;DHT22;9837;48.888;8.998;2023-05-10T10:03:05;22.10;53.70
19403;DHT22;9837;48.888;8.998;2023-05-10T10:05:35;22.50;53.00
19403;DHT22;9837;48.888;8.998;2023-05-10T10:08:03;22.60;52.40
19403;DHT22;9837;48.888;8.998;2023-05-10T10:10:31;22.50;52.10
19403;DHT22;9837;48.888;8.998;2023-05-10T10:12:57;22.50;51.50
19403;DHT22;9837;48.888;8.998;2023-05-10T10:15:23;22.30;51.40
19403;DHT22;9837;48.888;8.998;2023-05-10T10:17:50;22.30;52.00
19403;DHT22;9837;48.888;8.998;2023-05-10T10:20:17;22.40;53.70
19403;DHT22;9837;48.888;8.998;2023-05-10T10:22:43;22.40;52.80
19403;DHT22;9837;48.888;8.998;2023-05-10T10:25:10;22.20;52.90
19403;DHT22;9837;48.888;8.998;2023-05-10T10:30:19;22.30;52.80
19403;DHT22;9837;48.888;8.998;2023-05-10T10:35:19;22.20;51.90
19403;DHT22;9837;48.888;8.998;2023-05-10T10:37:47;22.00;52.80
19403;DHT22;9837;48.888;8.998;2023-05-10T10:40:26;21.60;54.10
19403;DHT22;9837;48.888;8.998;2023-05-10T10:42:53;21.60;54.50
19403;DHT22;9837;48.888;8.998;2023-05-10T10:45:19;22.00;52.30
19403;DHT22;9837;48.888;8.998;2023-05-10T10:47:46;21.60;52.50
19403;DHT22;9837;48.888;8.998;2023-05-10T10:50:11;21.30;53.40
19403;DHT22;9837;48.888;8.998;2023-05-10T10:52:42;21.20;54.10
19403;DHT22;9837;48.888;8.998;2023-05-10T11:02:48;22.60;49.10
19403;DHT22;9837;48.888;8.998;2023-05-10T11:08:00;22.60;49.60
19403;DHT22;9837;48.888;8.998;2023-05-10T11:10:26;22.40;49.50
19403;DHT22;9837;48.888;8.998;2023-05-10T11:12:59;22.50;50.40
19403;DHT22;9837;48.888;8.998;2023-05-10T11:15:33;22.80;50.10
19403;DHT22;9837;48.888;8.998;2023-05-10T11:17:59;22.80;48.50
19403;DHT22;9837;48.888;8.998;2023-05-10T11:20:29;22.60;49.00
19403;DHT22;9837;48.888;8.998;2023-05-10T11:23:14;22.60;49.30
19403;DHT22;9837;48.888;8.998;2023-05-10T11:25:44;22.90;48.80
19403;DHT22;9837;48.888;8.998;2023-05-10T11:28:10;22.80;47.20
19403;DHT22;9837;48.888;8.998;2023-05-10T11:30:37;22.80;48.10
19403;DHT22;9837;48.888;8.998;2023-05-10T11:33:03;22.90;48.10
19403;DHT22;9837;48.888;8.998;2023-05-10T11:35:29;22.80;47.30
19403;DHT22;9837;48.888;8.998;2023-05-10T11:37:54;22.70;48.60
19403;DHT22;9837;48.888;8.998;2023-05-10T11:40:21;22.80;48.10
19403;DHT22;9837;48.888;8.998;2023-05-10T11:42:50;22.70;48.30
19403;DHT22;9837;48.888;8.998;2023-05-10T11:45:15;22.70;48.40
19403;DHT22;9837;48.888;8.998;2023-05-10T11:47:41;22.70;47.60
19403;DHT22;9837;48.888;8.998;2023-05-10T11:50:09;22.40;48.20
19403;DHT22;9837;48.888;8.998;2023-05-10T11:52:36;22.10;49.30
19403;DHT22;9837;48.888;8.998;2023-05-10T11:55:02;22.20;48.10
19403;DHT22;9837;48.888;8.998;2023-05-10T11:57:28;22.00;47.20
19403;DHT22;9837;48.888;8.998;2023-05-10T12:02:20;21.90;46.00
19403;DHT22;9837;48.888;8.998;2023-05-10T12:07:12;21.80;46.70
19403;DHT22;9837;48.888;8.998;2023-05-10T12:10:02;21.70;46.70
19403;DHT22;9837;48.888;8.998;2023-05-10T12:12:34;21.40;47.30
19403;DHT22;9837;48.888;8.998;2023-05-10T12:15:00;21.10;48.30
19403;DHT22;9837;48.888;8.998;2023-05-10T12:17:29;20.80;49.20
19403;DHT22;9837;48.888;8.998;2023-05-10T12:20:12;20.90;50.50
19403;DHT22;9837;48.888;8.998;2023-05-10T12:25:04;21.50;49.60
19403;DHT22;9837;48.888;8.998;2023-05-10T12:27:32;21.70;49.10
19403;DHT22;9837;48.888;8.998;2023-05-10T12:29:59;21.90;49.10
19403;DHT22;9837;48.888;8.998;2023-05-10T12:32:43;21.90;50.30
19403;DHT22;9837;48.888;8.998;2023-05-10T12:35:09;21.80;49.40
19403;DHT22;9837;48.888;8.998;2023-05-10T12:37:36;21.60;50.80
19403;DHT22;9837;48.888;8.998;2023-05-10T12:40:09;21.90;50.70
19403;DHT22;9837;48.888;8.998;2023-05-10T12:42:36;22.20;49.00
19403;DHT22;9837;48.888;8.998;2023-05-10T12:45:03;22.40;49.30
19403;DHT22;9837;48.888;8.998;2023-05-10T12:47:29;22.60;48.10
19403;DHT22;9837;48.888;8.998;2023-05-10T12:52:21;22.40;47.80
19403;DHT22;9837;48.888;8.998;2023-05-10T12:54:46;22.40;47.40
19403;DHT22;9837;48.888;8.998;2023-05-10T12:57:13;22.50;48.10
19403;DHT22;9837;48.888;8.998;2023-05-10T12:59:38;22.50;48.00
19403;DHT22;9837;48.888;8.998;2023-05-10T13:02:04;22.50;47.50
19403;DHT22;9837;48.888;8.998;2023-05-10T13:06:56;22.50;46.60
19403;DHT22;9837;48.888;8.998;2023-05-10T13:11:50;21.90;48.70
19403;DHT22;9837;48.888;8.998;2023-05-10T13:14:16;22.10;48.60
19403;DHT22;9837;48.888;8.998;2023-05-10T13:16:41;22.10;48.70
19403;DHT22;9837;48.888;8.998;2023-05-10T13:21:33;22.30;46.60
19403;DHT22;9837;48.888;8.998;2023-05-10T13:23:58;22.50;47.70
19403;DHT22;9837;48.888;8.998;2023-05-10T13:26:25;22.80;46.50
19403;DHT22;9837;48.888;8.998;2023-05-10T13:31:17;23.10;46.70
19403;DHT22;9837;48.888;8.998;2023-05-10T13:33:42;23.30;46.40
19403;DHT22;9837;48.888;8.998;2023-05-10T13:36:08;23.30;45.50
19403;DHT22;9837;48.888;8.998;2023-05-10T13:38:34;23.40;45.10
19403;DHT22;9837;48.888;8.998;2023-05-10T13:40:59;23.40;44.70
19403;DHT22;9837;48.888;8.998;2023-05-10T13:43:25;23.40;44.30
19403;DHT22;9837;48.888;8.998;2023-05-10T13:48:17;23.50;44.20
19403;DHT22;9837;48.888;8.998;2023-05-10T13:50:43;22.70;45.00
19403;DHT22;9837;48.888;8.998;2023-05-10T13:53:08;22.30;45.70
19403;DHT22;9837;48.888;8.998;2023-05-10T13:58:00;22.20;47.10
19403;DHT22;9837;48.888;8.998;2023-05-10T14:00:26;22.30;47.70
19403;DHT22;9837;48.888;8.998;2023-05-10T14:07:44;22.80;45.60
19403;DHT22;9837;48.888;8.998;2023-05-10T14:10:09;22.80;46.10
19403;DHT22;9837;48.888;8.998;2023-05-10T14:12:35;22.90;45.40
19403;DHT22;9837;48.888;8.998;2023-05-10T14:15:00;22.90;46.50
19403;DHT22;9837;48.888;8.998;2023-05-10T14:22:18;23.20;45.00
19403;DHT22;9837;48.888;8.998;2023-05-10T14:27:12;23.30;45.10
19403;DHT22;9837;48.888;8.998;2023-05-10T14:29:38;23.40;45.10
19403;DHT22;9837;48.888;8.998;2023-05-10T14:34:29;23.00;46.20
19403;DHT22;9837;48.888;8.998;2023-05-10T14:36:55;22.90;46.20
19403;DHT22;9837;48.888;8.998;2023-05-10T14:41:48;23.30;45.50
19403;DHT22;9837;48.888;8.998;2023-05-10T14:44:13;23.40;44.80
19403;DHT22;9837;48.888;8.998;2023-05-10T14:46:40;23.50;44.70
19403;DHT22;9837;48.888;8.998;2023-05-10T14:51:33;23.30;43.90
19403;DHT22;9837;48.888;8.998;2023-05-10T14:53:58;23.30;42.60
19403;DHT22;9837;48.888;8.998;2023-05-10T14:56:24;23.30;43.10
19403;DHT22;9837;48.888;8.998;2023-05-10T15:01:16;23.20;45.60
19403;DHT22;9837;48.888;8.998;2023-05-10T15:03:42;23.40;43.90
19403;DHT22;9837;48.888;8.998;2023-05-10T15:06:08;23.30;44.20
19403;DHT22;9837;48.888;8.998;2023-05-10T15:08:34;23.30;43.20
19403;DHT22;9837;48.888;8.998;2023-05-10T15:10:59;23.30;43.80
19403;DHT22;9837;48.888;8.998;2023-05-10T15:13:25;23.30;43.00
19403;DHT22;9837;48.888;8.998;2023-05-10T15:15:51;23.20;43.30
19403;DHT22;9837;48.888;8.998;2023-05-10T15:18:16;23.30;43.80
19403;DHT22;9837;48.888;8.998;2023-05-10T15:20:42;22.90;43.10
19403;DHT22;9837;48.888;8.998;2023-05-10T15:23:07;22.30;44.10
19403;DHT22;9837;48.888;8.998;2023-05-10T15:25:33;22.20;46.00
19403;DHT22;9837;48.888;8.998;2023-05-10T15:28:03;22.40;45.20
19403;DHT22;9837;48.888;8.998;2023-05-10T15:30:28;22.60;45.10
19403;DHT22;9837;48.888;8.998;2023-05-10T15:32:54;22.70;44.70
19403;DHT22;9837;48.888;8.998;2023-05-10T15:37:47;22.70;43.90
19403;DHT22;9837;48.888;8.998;2023-05-10T15:40:13;22.60;44.50
19403;DHT22;9837;48.888;8.998;2023-05-10T15:42:38;22.50;45.00
19403;DHT22;9837;48.888;8.998;2023-05-10T15:45:04;22.60;44.80
19403;DHT22;9837;48.888;8.998;2023-05-10T15:47:30;22.70;44.40
19403;DHT22;9837;48.888;8.998;2023-05-10T15:49:56;22.80;44.80
19403;DHT22;9837;48.888;8.998;2023-05-10T15:52:21;22.70;44.40
19403;DHT22;9837;48.888;8.998;2023-05-10T15:57:14;23.10;44.30
19403;DHT22;9837;48.888;8.998;2023-05-10T15:59:39;23.10;44.70
19403;DHT22;9837;48.888;8.998;2023-05-10T16:02:06;23.10;44.60
19403;DHT22;9837;48.888;8.998;2023-05-10T16:04:31;23.10;44.20
19403;DHT22;9837;48.888;8.998;2023-05-10T16:06:57;23.10;44.20
19403;DHT22;9837;48.888;8.998;2023-05-10T16:09:22;22.90;44.50
19403;DHT22;9837;48.888;8.998;2023-05-10T16:14:14;22.70;44.50
19403;DHT22;9837;48.888;8.998;2023-05-10T16:16:40;22.80;45.70
19403;DHT22;9837;48.888;8.998;2023-05-10T16:19:06;22.80;45.40
19403;DHT22;9837;48.888;8.998;2023-05-10T16:21:31;22.90;45.20
19403;DHT22;9837;48.888;8.998;2023-05-10T16:23:58;22.70;44.90
19403;DHT22;9837;48.888;8.998;2023-05-10T16:26:24;22.70;45.20
19403;DHT22;9837;48.888;8.998;2023-05-10T16:28:49;22.60;45.90
19403;DHT22;9837;48.888;8.998;2023-05-10T16:31:15;22.60;46.10
19403;DHT22;9837;48.888;8.998;2023-05-10T16:33:43;22.60;46.50
19403;DHT22;9837;48.888;8.998;2023-05-10T16:36:08;22.50;46.40
19403;DHT22;9837;48.888;8.998;2023-05-10T16:38:34;22.60;46.50
19403;DHT22;9837;48.888;8.998;2023-05-10T16:41:01;22.50;46.80
19403;DHT22;9837;48.888;8.998;2023-05-10T16:43:28;22.50;46.60
19403;DHT22;9837;48.888;8.998;2023-05-10T16:45:53;22.50;46.50
19403;DHT22;9837;48.888;8.998;2023-05-10T16:48:19;22.30;46.40
19403;DHT22;9837;48.888;8.998;2023-05-10T16:50:44;22.30;46.50
19403;DHT22;9837;48.888;8.998;2023-05-10T16:53:09;22.20;48.10
19403;DHT22;9837;48.888;8.998;2023-05-10T16:55:36;22.10;47.30
19403;DHT22;9837;48.888;8.998;2023-05-10T17:02:54;21.90;47.60
19403;DHT22;9837;48.888;8.998;2023-05-10T17:05:20;21.80;47.60
19403;DHT22;9837;48.888;8.998;2023-05-10T17:07:46;21.90;47.70
19403;DHT22;9837;48.888;8.998;2023-05-10T17:10:11;21.90;47.80
19403;DHT22;9837;48.888;8.998;2023-05-10T17:15:04;21.60;47.30
19403;DHT22;9837;48.888;8.998;2023-05-10T17:17:30;21.60;47.90
19403;DHT22;9837;48.888;8.998;2023-05-10T17:19:56;21.50;47.50
19403;DHT22;9837;48.888;8.998;2023-05-10T17:22:23;21.40;48.10
19403;DHT22;9837;48.888;8.998;2023-05-10T17:24:48;21.40;48.10
19403;DHT22;9837;48.888;8.998;2023-05-10T17:27:14;21.10;48.70
19403;DHT22;9837;48.888;8.998;2023-05-10T17:34:35;21.20;49.20
19403;DHT22;9837;48.888;8.998;2023-05-10T17:37:00;21.20;49.40
19403;DHT22;9837;48.888;8.998;2023-05-10T17:39:26;21.20;49.20
19403;DHT22;9837;48.888;8.998;2023-05-10T17:41:52;21.20;49.30
19403;DHT22;9837;48.888;8.998;2023-05-10T17:44:17;21.20;49.50
19403;DHT22;9837;48.888;8.998;2023-05-10T17:46:43;21.20;49.70
19403;DHT22;9837;48.888;8.998;2023-05-10T17:49:08;21.20;49.90
19403;DHT22;9837;48.888;8.998;2023-05-10T17:51:34;21.20;50.30
19403;DHT22;9837;48.888;8.998;2023-05-10T17:53:59;21.20;50.30